createdAt,value
2023-04-15T00:01:03.912Z,0.88
2023-04-15T00:06:05.651Z,0.68
2023-04-15T00:11:07.207Z,0.60
2023-04-15T00:16:09.314Z,0.40
2023-04-15T00:21:10.921Z,0.20
2023-04-15T00:26:12.768Z,0.20
2023-04-15T00:31:14.485Z,0.20
2023-04-15T00:36:16.074Z,0.20
2023-04-15T00:41:19.359Z,0.28
2023-04-15T00:46:21.537Z,0.20
2023-04-15T00:51:23.554Z,0.13
2023-04-15T00:56:27.160Z,0.20
2023-04-15T01:01:29.347Z,0.10
2023-04-15T01:06:32.384Z,0.28
2023-04-15T01:11:34.840Z,0.30
2023-04-15T01:16:39.814Z,0.20
2023-04-15T01:21:41.671Z,0.30
2023-04-15T01:26:44.587Z,0.20
2023-04-15T01:31:53.866Z,0.20
2023-04-15T01:36:55.657Z,0.40
2023-04-15T01:41:57.571Z,0.30
2023-04-15T01:46:59.357Z,0.20
2023-04-15T01:52:00.959Z,0.20
2023-04-15T01:57:02.543Z,0.20
2023-04-15T02:02:04.787Z,0.20
2023-04-15T02:07:07.339Z,0.10
2023-04-15T02:12:09.461Z,0.15
2023-04-15T02:17:11.192Z,0.35
2023-04-15T02:22:18.383Z,0.15
2023-04-15T02:27:20.233Z,0.20
2023-04-15T02:32:24.447Z,0.20
2023-04-15T02:37:28.691Z,0.10
2023-04-15T02:42:31.941Z,0.10
2023-04-15T02:47:34.988Z,0.30
2023-04-15T02:52:36.604Z,0.45
2023-04-15T02:57:39.356Z,0.20
2023-04-15T03:02:42.360Z,0.20
2023-04-15T03:07:44.113Z,0.32
2023-04-15T03:12:45.792Z,0.20
2023-04-15T03:17:49.491Z,0.10
2023-04-15T03:22:51.314Z,0.90
2023-04-15T03:27:53.046Z,0.40
2023-04-15T03:32:54.776Z,0.20
2023-04-15T03:37:56.404Z,0.40
2023-04-15T03:42:57.941Z,0.20
2023-04-15T03:48:11.407Z,0.25
2023-04-15T03:53:18.008Z,0.30
2023-04-15T03:58:19.672Z,0.10
2023-04-15T04:03:21.552Z,0.30
2023-04-15T04:08:23.605Z,0.38
2023-04-15T04:13:25.394Z,0.15
2023-04-15T04:18:27.030Z,0.20
2023-04-15T04:23:28.712Z,0.17
2023-04-15T04:28:30.268Z,0.20
2023-04-15T04:33:31.850Z,0.30
2023-04-15T04:38:33.459Z,0.50
2023-04-15T04:43:35.086Z,0.63
2023-04-15T04:48:36.962Z,0.68
2023-04-15T04:53:38.549Z,0.52
2023-04-15T04:58:40.175Z,0.80
2023-04-15T05:03:41.936Z,0.82
2023-04-15T05:08:43.647Z,0.88
2023-04-15T05:13:45.457Z,0.88
2023-04-15T05:18:47.141Z,2.08
2023-04-15T05:23:48.718Z,1.77
2023-04-15T05:28:50.484Z,1.58
2023-04-15T05:33:52.103Z,1.50
2023-04-15T05:38:54.249Z,1.27
2023-04-15T05:43:56.360Z,1.23
2023-04-15T05:48:58.001Z,1.50
2023-04-15T05:53:59.584Z,1.30
2023-04-15T05:59:01.844Z,1.42
2023-04-15T06:04:03.762Z,1.90
2023-04-15T06:09:06.315Z,1.90
2023-04-15T06:14:08.360Z,2.30
2023-04-15T06:19:09.938Z,2.00
2023-04-15T06:24:12.049Z,1.92
2023-04-15T06:29:13.699Z,2.33
2023-04-15T06:34:15.282Z,1.73
2023-04-15T06:39:17.094Z,1.77
2023-04-15T06:44:18.832Z,3.80
2023-04-15T06:49:20.381Z,2.78
2023-04-15T06:54:22.059Z,2.67
2023-04-15T06:59:24.222Z,2.03
2023-04-15T07:04:25.881Z,2.58
2023-04-15T07:09:27.543Z,1.85
2023-04-15T07:14:29.576Z,2.47
2023-04-15T07:19:31.288Z,5.38
2023-04-15T07:24:32.879Z,5.22
2023-04-15T07:29:34.468Z,3.90
2023-04-15T07:34:36.561Z,2.97
2023-04-15T07:39:38.181Z,4.40
2023-04-15T07:44:39.826Z,4.60
2023-04-15T07:49:41.987Z,3.63
2023-04-15T07:54:43.620Z,3.33
2023-04-15T07:59:45.604Z,3.67
2023-04-15T08:04:47.939Z,3.38
2023-04-15T08:09:49.709Z,3.00
2023-04-15T08:14:52.253Z,2.17
2023-04-15T08:19:54.249Z,2.70
2023-04-15T08:24:55.856Z,2.45
2023-04-15T08:29:57.478Z,2.00
2023-04-15T08:34:59.310Z,1.55
2023-04-15T08:40:01.025Z,1.60
2023-04-15T08:45:05.330Z,1.58
2023-04-15T08:50:09.832Z,2.80
2023-04-15T08:55:13.784Z,3.30
2023-04-15T09:00:15.985Z,3.63
2023-04-15T09:05:17.774Z,3.60
2023-04-15T09:10:19.409Z,3.58
2023-04-15T09:15:21.359Z,2.83
2023-04-15T09:20:23.190Z,2.90
2023-04-15T09:25:29.146Z,3.00
2023-04-15T09:30:31.389Z,2.80
2023-04-15T09:35:33.174Z,3.33
2023-04-15T09:40:37.308Z,2.83
2023-04-15T09:45:38.999Z,3.50
2023-04-15T09:50:44.280Z,3.15
2023-04-15T09:55:49.759Z,3.45
2023-04-15T10:00:52.960Z,3.30
2023-04-15T10:05:57.278Z,3.25
2023-04-15T10:11:00.818Z,2.50
2023-04-15T10:16:14.489Z,2.90
2023-04-15T10:21:18.768Z,2.38
2023-04-15T10:26:20.934Z,2.33
2023-04-15T10:31:23.464Z,2.80
2023-04-15T10:36:25.506Z,2.80
2023-04-15T10:41:31.296Z,2.50
2023-04-15T10:46:38.723Z,2.60
2023-04-15T10:51:43.215Z,2.22
2023-04-15T10:56:45.576Z,2.20
2023-04-15T11:02:00.711Z,1.60
2023-04-15T11:07:06.837Z,0.60
2023-04-15T11:12:10.010Z,0.67
2023-04-15T11:17:11.775Z,0.50
2023-04-15T11:22:13.525Z,0.60
2023-04-15T11:27:23.437Z,0.60
2023-04-15T11:32:25.073Z,0.65
2023-04-15T11:37:30.420Z,0.57
2023-04-15T11:42:46.464Z,0.80
2023-04-15T11:47:51.027Z,0.50
2023-04-15T11:52:57.286Z,0.60
2023-04-15T11:58:11.427Z,0.40
2023-04-15T12:03:13.936Z,0.50
2023-04-15T12:08:15.673Z,0.40
2023-04-15T12:13:17.507Z,0.65
2023-04-15T12:18:19.875Z,0.90
2023-04-15T12:23:21.689Z,1.50
2023-04-15T12:28:23.292Z,0.70
2023-04-15T12:33:33.717Z,0.50
2023-04-15T12:38:35.591Z,0.40
2023-04-15T12:43:37.748Z,0.60
2023-04-15T12:48:40.628Z,0.35
2023-04-15T12:53:42.325Z,0.30
2023-04-15T12:58:43.956Z,0.50
2023-04-15T13:03:45.860Z,0.20
2023-04-15T13:08:57.170Z,0.10
2023-04-15T13:14:02.384Z,0.20
2023-04-15T13:19:04.419Z,0.30
2023-04-15T13:24:07.475Z,0.20
2023-04-15T13:29:09.423Z,0.13
2023-04-15T13:34:11.249Z,0.20
2023-04-15T13:39:12.881Z,0.20
2023-04-15T13:44:14.778Z,0.10
2023-04-15T13:49:16.428Z,0.17
2023-04-15T13:54:18.129Z,0.30
2023-04-15T13:59:19.712Z,0.38
2023-04-15T14:04:21.582Z,0.28
2023-04-15T14:09:26.289Z,0.20
2023-04-15T14:14:28.091Z,0.13
2023-04-15T14:19:31.323Z,0.10
2023-04-15T14:24:33.116Z,0.10
2023-04-15T14:29:34.914Z,0.20
2023-04-15T14:34:36.668Z,0.20
2023-04-15T14:39:38.450Z,0.10
2023-04-15T14:44:40.025Z,0.15
2023-04-15T14:49:41.705Z,0.20
2023-04-15T14:54:43.708Z,0.20
2023-04-15T14:59:45.614Z,0.20
2023-04-15T15:04:47.423Z,0.20
2023-04-15T15:09:49.084Z,0.20
2023-04-15T15:14:50.989Z,0.10
2023-04-15T15:19:53.262Z,0.20
2023-04-15T15:24:55.087Z,0.20
2023-04-15T15:29:56.908Z,0.40
2023-04-15T15:34:58.635Z,0.30
2023-04-15T15:40:00.992Z,0.30
2023-04-15T15:45:04.516Z,0.55
2023-04-15T15:50:07.759Z,0.47
2023-04-15T15:55:12.201Z,0.55
2023-04-15T16:00:14.440Z,1.10
2023-04-15T16:05:16.239Z,1.02
2023-04-15T16:10:17.803Z,0.55
2023-04-15T16:15:19.512Z,0.60
2023-04-15T16:20:21.121Z,0.70
2023-04-15T16:25:22.957Z,0.50
2023-04-15T16:30:24.796Z,0.70
2023-04-15T16:35:26.750Z,0.80
2023-04-15T16:40:28.522Z,0.75
2023-04-15T16:45:30.573Z,0.60
2023-04-15T16:50:32.798Z,0.20
2023-04-15T16:55:34.585Z,0.30
2023-04-15T17:00:37.006Z,0.40
2023-04-15T17:05:39.266Z,0.73
2023-04-15T17:10:41.673Z,3.05
2023-04-15T17:15:43.460Z,0.55
2023-04-15T17:20:45.106Z,0.45
2023-04-15T17:25:48.308Z,0.47
2023-04-15T17:30:50.391Z,0.68
2023-04-15T17:35:52.396Z,1.20
2023-04-15T17:40:54.422Z,0.98
2023-04-15T17:45:58.499Z,1.50
2023-04-15T17:51:00.478Z,2.13
2023-04-15T17:56:03.228Z,1.30
2023-04-15T18:01:05.455Z,0.93
2023-04-15T18:06:07.926Z,0.68
2023-04-15T18:11:12.597Z,2.00
2023-04-15T18:16:15.073Z,2.08
2023-04-15T18:21:17.341Z,1.30
2023-04-15T18:26:19.832Z,1.08
2023-04-15T18:31:21.692Z,1.77
2023-04-15T18:36:24.517Z,1.95
2023-04-15T18:41:26.857Z,2.28
2023-04-15T18:46:29.328Z,0.82
2023-04-15T18:51:34.621Z,1.10
2023-04-15T18:56:36.955Z,1.20
2023-04-15T19:01:39.398Z,1.40
2023-04-15T19:06:41.443Z,1.38
2023-04-15T19:11:44.309Z,2.15
2023-04-15T19:16:46.549Z,2.38
2023-04-15T19:21:55.028Z,1.90
2023-04-15T19:26:58.238Z,2.42
2023-04-15T19:32:00.980Z,2.90
2023-04-15T19:37:03.368Z,3.55
2023-04-15T19:42:05.854Z,2.63
2023-04-15T19:47:08.414Z,2.40
2023-04-15T19:52:10.597Z,2.40
2023-04-15T19:57:13.700Z,2.67
2023-04-15T20:02:15.846Z,2.58
2023-04-15T20:07:18.696Z,2.30
2023-04-15T20:12:49.871Z,2.10
2023-04-15T20:17:44.779Z,1.20
2023-04-15T20:22:47.182Z,1.77
2023-04-15T20:27:49.466Z,2.03
2023-04-15T20:32:52.034Z,1.40
2023-04-15T20:37:54.915Z,1.80
2023-04-15T20:42:56.694Z,1.10
2023-04-15T20:47:58.787Z,1.30
2023-04-15T20:53:00.779Z,1.38
2023-04-15T20:58:02.549Z,1.38
2023-04-15T21:03:04.363Z,1.20
2023-04-15T21:08:07.719Z,2.03
2023-04-15T21:13:09.803Z,1.80
2023-04-15T21:18:11.436Z,1.42
2023-04-15T21:23:13.359Z,1.17
2023-04-15T21:28:15.015Z,1.80
2023-04-15T21:33:17.836Z,1.70
2023-04-15T21:38:21.324Z,1.27
2023-04-15T21:43:25.806Z,1.20
2023-04-15T21:48:27.417Z,1.60
2023-04-15T21:53:29.002Z,2.10
2023-04-15T21:58:30.611Z,1.92
2023-04-15T22:03:34.423Z,1.90
2023-04-15T22:08:48.135Z,2.92
2023-04-15T22:13:54.789Z,4.07
2023-04-15T22:18:56.493Z,2.10
2023-04-15T22:24:31.688Z,1.75
2023-04-15T22:29:20.898Z,1.48
2023-04-15T22:34:23.008Z,1.33
2023-04-15T22:39:24.586Z,1.40
2023-04-15T22:44:26.239Z,1.40
2023-04-15T22:49:27.856Z,1.25
2023-04-15T22:54:29.417Z,1.20
2023-04-15T22:59:30.977Z,1.55
2023-04-15T23:04:32.704Z,1.33
2023-04-15T23:09:34.465Z,1.15
2023-04-15T23:14:36.012Z,1.17
2023-04-15T23:19:37.564Z,1.25
2023-04-15T23:24:39.144Z,0.93
2023-04-15T23:29:40.896Z,0.68
2023-04-15T23:34:42.495Z,0.95
2023-04-15T23:39:44.503Z,1.10
2023-04-15T23:44:46.515Z,0.88
2023-04-15T23:49:48.158Z,1.58
2023-04-15T23:54:49.718Z,1.83
2023-04-15T23:59:51.308Z,1.23
